Skip Navigation LinksHome page > Weather > Current weather Skip Navigation Links

Current Weather

Eureka, Nunavut

For information only: do not use for flight planning or navigation.
Latest weather
Observation time Wednesday, March 29, 2017 2:00 AM CDT
Local time Wednesday, March 29, 2017 2:17 AM CDT
Flight conditions Visual Meteorological Conditions
Winds
Wind direction North (10°)
Wind speed 2 mph
Visibility 15 mi.
Sky condition
Ceiling unlimited
Cloud layer few clouds 2,500 ft.
Cloud layer few clouds 8,000 ft.
Temperature -18°F
Dewpoint -24°F
Altimeter 30.12 in.Hg
Derived measurements
Relative humidity 75%
Wind chill -18°F
Density altitude -5805 ft.
Sea-level pressure 30.13 in.Hg
METAR CWEU 290700Z 01002KT 15SM FEW025 FEW080 M28/M31 A3012 RMK SC1AS1 SC TR AS TR SLP202

Settings

Location code

InnerDrive.Weather 4.0.6144.1 Release CLR 4.0.30319.34209
Copyright ©2015 Inner Drive Technology. All rights reserved. Portions Copyright ©1986-2015 David Braverman.

Find weather

Site navigation


Skip Navigation Links

Place info

Page info

PayPal - The safer, easier way to pay online!

Return home.

Copyright ©2017 Inner Drive Technology. Purveyors of fine, hand-crafted computer software. Page printed 2017-03-29T07:17:15 UTC.